Time;durP1;ratioP1;P1;durP2;ratioP2;P2;SDS_P1;SDS_P2;PMS_P1;PMS_P2;Temp;Humidity;BMP_temperature;BMP_pressure;BME280_temperature;BME280_humidity;BME280_pressure;Samples;Min_cycle;Max_cycle;Signal;HPM_P1;HPM_P2
2024/01/22 00:00:18;;;;;;;12.02;3.45;;;7.30;99.90;;;;;;5061193;28;20171;-74
2024/01/22 00:02:50;;;;;;;5.90;2.78;;;7.30;99.90;;;;;;5046878;28;20051;-72
2024/01/22 00:05:16;;;;;;;9.20;3.35;;;7.30;99.90;;;;;;5056429;28;20037;-73
2024/01/22 00:07:43;;;;;;;;;;;7.30;99.90;;;;;;5058057;28;20083;-69
2024/01/22 00:10:10;;;;;;;10.45;3.22;;;7.30;99.90;;;;;;5054900;28;19940;-70
2024/01/22 00:12:39;;;;;;;6.20;3.15;;;7.40;99.90;;;;;;5041571;28;20041;-70
2024/01/22 00:15:06;;;;;;;10.10;3.42;;;7.40;99.90;;;;;;5062134;28;20079;-69
2024/01/22 00:17:34;;;;;;;8.88;3.75;;;7.40;99.90;;;;;;5059386;28;20191;-72
2024/01/22 00:20:01;;;;;;;7.93;3.20;;;7.50;99.90;;;;;;5045738;28;20049;-69
2024/01/22 00:22:27;;;;;;;6.05;3.00;;;7.50;99.90;;;;;;5059113;28;20040;-70
2024/01/22 00:24:54;;;;;;;4.78;3.13;;;7.50;99.90;;;;;;5046103;28;20403;-74
2024/01/22 00:27:21;;;;;;;6.97;3.33;;;7.50;99.90;;;;;;5043310;28;20036;-68
2024/01/22 00:29:47;;;;;;;5.50;2.72;;;7.60;99.90;;;;;;5061716;28;21092;-69
2024/01/22 00:32:14;;;;;;;8.00;3.17;;;7.60;99.90;;;;;;5045292;28;20412;-70
2024/01/22 00:34:40;;;;;;;7.32;3.35;;;7.60;99.90;;;;;;5067877;28;20408;-70
2024/01/22 00:37:07;;;;;;;6.03;3.15;;;7.60;99.90;;;;;;5041535;28;20909;-71
2024/01/22 00:39:37;;;;;;;7.82;3.42;;;7.70;99.90;;;;;;5027727;28;20128;-72
2024/01/22 00:42:04;;;;;;;9.80;3.40;;;7.70;99.90;;;;;;5068857;28;20463;-71
2024/01/22 00:44:38;;;;;;;6.03;3.33;;;7.70;99.90;;;;;;4959249;28;20044;-72
2024/01/22 00:47:04;;;;;;;11.45;3.15;;;7.70;99.90;;;;;;5060884;28;20049;-70
2024/01/22 00:49:30;;;;;;;7.95;3.30;;;7.80;99.90;;;;;;5062868;28;20060;-75
2024/01/22 00:51:58;;;;;;;5.68;3.10;;;7.80;99.90;;;;;;5066192;28;20060;-73
2024/01/22 00:54:24;;;;;;;6.50;2.78;;;7.80;99.90;;;;;;5060199;28;20148;-72
2024/01/22 00:56:53;;;;;;;6.45;2.90;;;7.80;99.90;;;;;;5058465;28;20029;-73
2024/01/22 00:59:20;;;;;;;6.30;3.20;;;7.80;99.90;;;;;;5041307;28;20450;-71
2024/01/22 01:01:48;;;;;;;11.60;3.38;;;7.80;99.90;;;;;;5053870;28;20427;-72
2024/01/22 01:04:28;;;;;;;8.43;3.17;;;7.90;99.90;;;;;;5040711;28;20059;-71
2024/01/22 01:06:54;;;;;;;5.63;2.83;;;7.90;99.90;;;;;;5060458;28;20040;-72
2024/01/22 01:09:23;;;;;;;6.80;3.20;;;7.90;99.90;;;;;;5065795;28;20082;-71
2024/01/22 01:11:55;;;;;;;6.78;3.15;;;7.90;99.90;;;;;;5049046;28;20047;-75
2024/01/22 01:14:28;;;;;;;9.02;4.55;;;7.90;99.90;;;;;;5049341;28;20032;-71
2024/01/22 01:17:03;;;;;;;5.22;2.60;;;7.90;99.90;;;;;;5045205;28;20186;-73
2024/01/22 01:19:32;;;;;;;12.45;3.08;;;8.00;99.90;;;;;;5060852;28;20127;-73
2024/01/22 01:22:00;;;;;;;6.95;2.83;;;8.00;99.90;;;;;;5066048;28;20089;-73
2024/01/22 01:24:27;;;;;;;7.55;3.10;;;8.00;99.90;;;;;;5047969;28;20036;-72
2024/01/22 01:27:05;;;;;;;7.00;2.83;;;8.00;99.90;;;;;;5065592;28;20052;-73
2024/01/22 01:29:43;;;;;;;7.03;2.67;;;7.90;99.90;;;;;;5047590;28;20462;-71
2024/01/22 01:32:12;;;;;;;5.57;2.67;;;8.00;99.90;;;;;;5041173;28;20036;-71
2024/01/22 01:34:59;;;;;;;6.20;3.05;;;8.10;99.90;;;;;;5046264;28;20404;-72
2024/01/22 01:37:32;;;;;;;7.38;3.20;;;8.10;99.90;;;;;;5045269;28;20130;-70
2024/01/22 01:40:06;;;;;;;5.40;2.83;;;8.10;99.90;;;;;;5061365;28;20048;-73
2024/01/22 01:42:35;;;;;;;7.80;2.97;;;8.10;99.90;;;;;;5066039;28;20408;-72
2024/01/22 01:45:01;;;;;;;7.68;2.90;;;8.20;99.90;;;;;;5052316;28;20822;-70
2024/01/22 01:47:27;;;;;;;9.17;3.30;;;8.20;99.90;;;;;;5060464;28;20067;-70
2024/01/22 01:49:54;;;;;;;8.30;2.88;;;8.20;99.90;;;;;;5039941;28;20043;-69
2024/01/22 01:52:21;;;;;;;5.22;2.92;;;8.30;99.90;;;;;;5053772;28;20044;-69
2024/01/22 01:54:51;;;;;;;6.03;3.05;;;8.30;99.90;;;;;;5046979;28;20044;-68
2024/01/22 01:57:17;;;;;;;8.20;2.63;;;8.30;99.90;;;;;;5047426;28;20060;-69
2024/01/22 01:59:46;;;;;;;8.98;2.80;;;8.30;99.90;;;;;;5062572;28;20063;-68
2024/01/22 02:02:12;;;;;;;4.70;2.83;;;8.40;99.90;;;;;;5059613;28;20644;-68
2024/01/22 02:04:40;;;;;;;8.50;2.30;;;8.40;99.90;;;;;;5059086;28;20037;-69
2024/01/22 02:07:06;;;;;;;5.27;2.90;;;8.40;99.90;;;;;;5052577;28;20051;-68
2024/01/22 02:09:46;;;;;;;6.97;2.80;;;8.40;99.90;;;;;;5050477;28;20040;-68
2024/01/22 02:12:11;;;;;;;11.63;3.70;;;8.40;99.90;;;;;;5056470;28;20121;-68
2024/01/22 02:14:38;;;;;;;9.90;3.43;;;8.40;99.90;;;;;;5060648;28;20689;-68
2024/01/22 02:17:05;;;;;;;5.30;2.83;;;8.50;99.90;;;;;;5049087;28;20036;-68
2024/01/22 02:19:32;;;;;;;;;;;8.50;99.90;;;;;;5066430;28;20119;-68
2024/01/22 02:22:01;;;;;;;6.73;2.93;;;8.50;99.90;;;;;;5057620;28;19916;-68
2024/01/22 02:24:32;;;;;;;7.05;2.90;;;8.40;99.90;;;;;;5069356;28;20331;-70
2024/01/22 02:27:06;;;;;;;6.55;2.53;;;8.40;99.90;;;;;;5028962;28;20546;-73
2024/01/22 02:29:32;;;;;;;6.15;3.20;;;8.50;99.90;;;;;;5069177;28;20032;-69
2024/01/22 02:32:02;;;;;;;4.25;2.50;;;8.50;99.90;;;;;;5025108;28;20178;-70
2024/01/22 02:34:33;;;;;;;7.88;3.00;;;8.60;99.90;;;;;;5054020;28;20055;-69
2024/01/22 02:37:02;;;;;;;6.35;2.78;;;8.60;99.90;;;;;;5065386;28;20040;-69
2024/01/22 02:39:33;;;;;;;7.30;2.40;;;8.60;99.90;;;;;;5065809;28;20297;-68
2024/01/22 02:42:02;;;;;;;5.22;2.80;;;8.70;99.90;;;;;;5044940;28;20036;-69
2024/01/22 02:44:34;;;;;;;7.15;2.58;;;8.70;99.90;;;;;;5064918;28;20108;-69
2024/01/22 02:47:01;;;;;;;5.07;2.58;;;8.70;99.90;;;;;;5042459;28;20052;-70
2024/01/22 02:49:28;;;;;;;5.32;2.63;;;8.70;99.90;;;;;;5061963;28;20170;-69
2024/01/22 02:52:23;;;;;;;5.78;2.50;;;8.70;99.90;;;;;;5009967;28;20431;-68
2024/01/22 02:54:51;;;;;;;5.85;2.65;;;8.70;99.90;;;;;;5033497;28;20123;-71
2024/01/22 02:57:18;;;;;;;7.22;2.67;;;8.80;99.90;;;;;;5030661;28;20076;-70
2024/01/22 02:59:44;;;;;;;10.02;2.63;;;8.80;99.90;;;;;;5050168;28;20040;-71
2024/01/22 03:02:10;;;;;;;5.93;2.67;;;8.70;99.90;;;;;;5072974;28;20105;-73
2024/01/22 03:04:37;;;;;;;6.05;1.92;;;8.80;99.90;;;;;;5072609;28;20098;-75
2024/01/22 03:07:06;;;;;;;5.32;2.65;;;8.80;99.90;;;;;;5068963;28;20046;-73
2024/01/22 03:09:34;;;;;;;8.07;2.75;;;8.80;99.90;;;;;;5051566;28;20413;-72
2024/01/22 03:12:02;;;;;;;7.57;2.25;;;8.80;99.90;;;;;;5065639;28;20115;-73
2024/01/22 03:14:30;;;;;;;5.45;2.38;;;8.80;99.90;;;;;;5070032;28;20039;-73
2024/01/22 03:16:59;;;;;;;4.50;2.70;;;8.80;99.90;;;;;;5051695;28;20029;-72
2024/01/22 03:19:25;;;;;;;5.15;2.25;;;8.80;99.90;;;;;;5051512;28;20054;-71
2024/01/22 03:21:52;;;;;;;7.88;2.63;;;8.80;99.90;;;;;;5071472;28;20044;-72
2024/01/22 03:24:23;;;;;;;5.93;2.47;;;8.80;99.90;;;;;;5064352;28;20542;-72
2024/01/22 03:27:01;;;;;;;5.93;2.80;;;8.80;99.90;;;;;;5067165;28;20437;-74
2024/01/22 03:29:27;;;;;;;8.27;2.72;;;8.80;99.90;;;;;;5040357;28;20041;-73
2024/01/22 03:31:57;;;;;;;5.05;2.58;;;8.80;99.90;;;;;;5053766;28;20108;-73
2024/01/22 03:34:26;;;;;;;5.95;2.13;;;8.80;99.90;;;;;;5050312;28;20252;-72
2024/01/22 03:37:01;;;;;;;3.20;1.75;;;8.80;99.90;;;;;;5064058;28;20171;-73
2024/01/22 03:39:31;;;;;;;3.60;2.15;;;8.80;99.90;;;;;;5069443;28;20029;-73
2024/01/22 03:42:27;;;;;;;3.05;1.90;;;8.80;99.90;;;;;;5054847;28;20036;-74
2024/01/22 03:44:55;;;;;;;6.60;1.92;;;8.80;99.90;;;;;;5048868;28;20044;-72
2024/01/22 03:47:27;;;;;;;3.92;1.60;;;8.90;99.90;;;;;;5050728;28;20037;-72
2024/01/22 03:50:00;;;;;;;3.45;1.67;;;8.90;99.90;;;;;;5044436;28;20910;-71
2024/01/22 03:52:33;;;;;;;4.07;2.10;;;8.80;99.90;;;;;;5062634;28;20072;-69
2024/01/22 03:55:07;;;;;;;3.60;1.90;;;8.80;99.90;;;;;;5067932;28;20043;-71
2024/01/22 03:57:41;;;;;;;8.25;2.15;;;8.90;99.90;;;;;;5045252;28;20070;-71
2024/01/22 04:00:32;;;;;;;3.95;1.90;;;8.90;99.90;;;;;;5048224;28;20191;-75
2024/01/22 04:03:08;;;;;;;5.22;2.08;;;8.90;99.90;;;;;;5064928;28;20394;-71
2024/01/22 04:05:45;;;;;;;3.75;1.20;;;9.00;99.90;;;;;;5049677;28;20048;-71
2024/01/22 04:08:11;;;;;;;5.70;2.05;;;9.00;99.90;;;;;;5054363;28;20134;-70
2024/01/22 04:10:46;;;;;;;3.40;1.60;;;9.00;99.90;;;;;;5045143;28;20044;-71
2024/01/22 04:13:18;;;;;;;7.45;1.92;;;9.00;99.90;;;;;;5059372;28;20040;-70
2024/01/22 04:15:50;;;;;;;3.10;1.73;;;9.10;99.90;;;;;;5060950;28;20028;-73
2024/01/22 04:18:16;;;;;;;4.28;1.77;;;9.20;99.90;;;;;;5053063;28;20072;-71
2024/01/22 04:20:42;;;;;;;6.03;1.60;;;9.20;99.90;;;;;;5054440;28;20600;-72
2024/01/22 04:23:07;;;;;;;6.70;1.53;;;9.20;99.90;;;;;;5060296;28;20037;-71
2024/01/22 04:25:33;;;;;;;2.63;1.70;;;9.30;99.90;;;;;;5053655;28;20497;-72
2024/01/22 04:27:58;;;;;;;2.57;1.50;;;9.30;99.90;;;;;;5050621;28;20090;-73
2024/01/22 04:30:24;;;;;;;3.83;1.97;;;9.30;99.90;;;;;;5059735;28;20037;-70
2024/01/22 04:32:50;;;;;;;2.90;1.27;;;9.40;99.90;;;;;;5055763;28;20037;-71
2024/01/22 04:35:16;;;;;;;2.87;1.30;;;9.40;99.90;;;;;;5060951;28;20040;-70
2024/01/22 04:37:41;;;;;;;2.90;1.15;;;9.50;99.90;;;;;;5038806;28;20269;-70
2024/01/22 04:40:14;;;;;;;2.57;0.93;;;9.50;99.90;;;;;;5056565;28;20052;-70
2024/01/22 04:42:44;;;;;;;1.90;0.95;;;9.60;99.90;;;;;;5058450;28;20045;-71
2024/01/22 04:45:10;;;;;;;3.40;1.05;;;9.60;99.90;;;;;;5056842;28;20047;-71
2024/01/22 04:47:36;;;;;;;1.65;1.00;;;9.70;99.90;;;;;;5057295;28;20062;-71
2024/01/22 04:50:01;;;;;;;2.33;0.90;;;9.90;99.90;;;;;;5058238;28;20071;-70
2024/01/22 04:52:27;;;;;;;2.03;0.90;;;9.90;99.90;;;;;;5040564;28;20473;-71
2024/01/22 04:54:53;;;;;;;1.97;1.00;;;9.90;99.90;;;;;;5052618;28;20104;-71
2024/01/22 04:57:21;;;;;;;2.00;0.90;;;10.00;99.90;;;;;;5054943;28;20170;-71
2024/01/22 04:59:47;;;;;;;1.80;1.00;;;10.10;99.90;;;;;;5064381;28;20036;-72
2024/01/22 05:02:12;;;;;;;1.00;0.73;;;10.10;99.90;;;;;;5055584;28;20040;-71
2024/01/22 05:04:40;;;;;;;1.40;0.85;;;10.20;99.90;;;;;;5055796;28;20041;-70
2024/01/22 05:07:06;;;;;;;3.10;0.80;;;10.20;99.90;;;;;;5057820;28;20049;-71
2024/01/22 05:09:31;;;;;;;2.30;1.07;;;10.20;99.90;;;;;;5057026;28;20044;-70
2024/01/22 05:11:59;;;;;;;2.60;0.90;;;10.20;99.90;;;;;;5060564;28;20175;-71
2024/01/22 05:14:25;;;;;;;1.37;0.70;;;10.20;99.90;;;;;;5051723;28;20120;-72
2024/01/22 05:16:51;;;;;;;1.47;0.90;;;10.20;99.90;;;;;;5053743;28;20579;-71
2024/01/22 05:19:16;;;;;;;2.70;1.00;;;10.30;99.90;;;;;;5058715;28;20031;-71
2024/01/22 05:21:47;;;;;;;1.58;0.80;;;10.20;99.90;;;;;;5059060;28;20036;-71
2024/01/22 05:24:13;;;;;;;0.90;0.65;;;10.20;99.90;;;;;;5057491;28;20075;-71
2024/01/22 05:26:39;;;;;;;2.20;0.77;;;10.20;99.90;;;;;;5056815;28;20075;-70
2024/01/22 05:29:04;;;;;;;1.50;1.03;;;10.20;99.90;;;;;;5055094;28;20040;-71
2024/01/22 05:31:30;;;;;;;2.67;0.77;;;10.20;99.90;;;;;;5056190;28;20068;-71
2024/01/22 05:33:55;;;;;;;1.27;0.70;;;10.20;99.90;;;;;;5060329;28;20330;-71
2024/01/22 05:36:21;;;;;;;2.07;1.03;;;10.20;99.90;;;;;;5055190;28;20036;-70
2024/01/22 05:38:47;;;;;;;3.63;0.80;;;10.20;99.90;;;;;;5059238;28;20045;-70
2024/01/22 05:41:12;;;;;;;2.63;1.03;;;10.30;99.90;;;;;;5060524;28;20036;-71
2024/01/22 05:43:38;;;;;;;2.53;0.77;;;10.30;99.90;;;;;;5054041;28;20228;-72
2024/01/22 05:46:04;;;;;;;2.17;0.90;;;10.20;99.90;;;;;;5057737;28;20048;-71
2024/01/22 05:48:29;;;;;;;3.30;0.80;;;10.20;99.90;;;;;;5053007;28;20028;-72
2024/01/22 05:50:55;;;;;;;3.70;0.93;;;10.20;99.90;;;;;;5059719;28;20055;-72
2024/01/22 05:53:20;;;;;;;1.57;0.60;;;10.10;99.90;;;;;;5041152;28;20047;-71
2024/01/22 05:55:46;;;;;;;2.63;1.20;;;10.10;99.90;;;;;;5053736;28;20691;-71
2024/01/22 05:58:12;;;;;;;1.80;1.00;;;10.00;99.90;;;;;;5058143;28;20050;-71
2024/01/22 06:00:39;;;;;;;2.03;1.20;;;10.00;99.90;;;;;;5060433;28;20271;-72
2024/01/22 06:03:04;;;;;;;3.05;0.93;;;9.90;99.90;;;;;;5062662;28;20424;-71
2024/01/22 06:05:30;;;;;;;2.73;1.10;;;9.80;99.90;;;;;;5062730;28;20044;-71
2024/01/22 06:07:56;;;;;;;4.57;1.03;;;9.80;99.90;;;;;;5057141;28;20071;-73
2024/01/22 06:10:21;;;;;;;2.27;1.20;;;9.80;99.90;;;;;;5056754;28;20033;-71
2024/01/22 06:12:47;;;;;;;2.80;1.10;;;9.80;99.90;;;;;;5053108;28;20050;-70
2024/01/22 06:15:13;;;;;;;3.25;0.85;;;9.70;99.90;;;;;;5057702;28;20051;-71
2024/01/22 06:17:39;;;;;;;3.50;1.37;;;9.80;99.90;;;;;;5059180;28;20044;-72
2024/01/22 06:20:05;;;;;;;3.83;1.57;;;9.80;99.90;;;;;;5049266;28;20052;-71
2024/01/22 06:22:33;;;;;;;7.57;1.27;;;9.90;99.90;;;;;;5056214;28;20354;-71
2024/01/22 06:25:00;;;;;;;7.72;1.10;;;9.90;99.90;;;;;;5054829;28;20060;-74
2024/01/22 06:27:26;;;;;;;5.45;1.42;;;10.00;99.90;;;;;;5046275;28;20052;-72
2024/01/22 06:29:53;;;;;;;6.50;1.65;;;9.90;99.90;;;;;;5061200;28;20048;-71
2024/01/22 06:32:19;;;;;;;6.50;1.98;;;9.90;99.90;;;;;;5061385;28;20484;-71
2024/01/22 06:34:48;;;;;;;3.95;1.20;;;9.90;99.90;;;;;;5054793;28;20394;-71
2024/01/22 06:37:15;;;;;;;8.35;2.17;;;9.80;99.90;;;;;;5052769;28;20048;-71
2024/01/22 06:39:41;;;;;;;5.90;1.50;;;9.70;99.90;;;;;;5060745;28;20458;-71
2024/01/22 06:42:07;;;;;;;8.00;2.15;;;9.80;99.90;;;;;;5058921;28;20131;-70
2024/01/22 06:44:33;;;;;;;11.15;2.20;;;9.70;99.90;;;;;;5063033;28;20500;-78
2024/01/22 06:46:59;;;;;;;7.83;1.20;;;9.70;99.90;;;;;;5053514;28;20049;-75
2024/01/22 06:49:24;;;;;;;7.13;1.80;;;9.70;99.90;;;;;;5059574;28;20048;-73
2024/01/22 06:51:53;;;;;;;10.43;1.73;;;9.70;99.90;;;;;;5055976;28;20583;-73
2024/01/22 06:54:19;;;;;;;18.10;2.97;;;9.70;99.90;;;;;;5055882;28;20036;-73
2024/01/22 06:56:45;;;;;;;8.65;1.63;;;9.70;99.90;;;;;;5057136;28;20128;-73
2024/01/22 06:59:11;;;;;;;7.90;1.60;;;9.60;99.90;;;;;;5061701;28;20119;-72
2024/01/22 07:01:37;;;;;;;21.57;1.80;;;9.60;99.90;;;;;;5057733;28;20446;-80
2024/01/22 07:04:05;;;;;;;8.77;2.20;;;9.60;99.90;;;;;;5058284;28;20048;-70
2024/01/22 07:06:33;;;;;;;9.10;2.20;;;9.60;99.90;;;;;;5058258;28;20072;-71
2024/01/22 07:08:58;;;;;;;14.07;3.38;;;9.60;99.90;;;;;;5060355;28;20330;-71
2024/01/22 07:11:24;;;;;;;21.40;3.23;;;9.60;99.90;;;;;;5058128;28;20540;-70
2024/01/22 07:13:51;;;;;;;15.20;3.00;;;9.60;99.90;;;;;;5053973;28;20520;-71
2024/01/22 07:16:16;;;;;;;21.10;2.88;;;9.50;99.90;;;;;;5037642;28;20131;-71
2024/01/22 07:18:42;;;;;;;31.60;3.20;;;9.60;99.90;;;;;;5058035;28;20449;-70
2024/01/22 07:21:08;;;;;;;27.47;3.50;;;9.60;99.90;;;;;;5039957;28;20207;-71
2024/01/22 07:23:34;;;;;;;19.92;3.47;;;9.60;99.90;;;;;;5052800;28;20041;-72
2024/01/22 07:26:00;;;;;;;33.00;5.53;;;9.50;99.90;;;;;;5053602;28;20508;-71
2024/01/22 07:28:25;;;;;;;22.93;2.40;;;9.60;99.90;;;;;;5039848;28;20048;-71
2024/01/22 07:30:51;;;;;;;13.60;3.73;;;9.60;99.90;;;;;;5061784;28;20045;-72
2024/01/22 07:33:17;;;;;;;17.13;3.77;;;9.60;99.90;;;;;;5054756;28;20036;-70
2024/01/22 07:35:42;;;;;;;37.30;4.00;;;9.60;99.90;;;;;;5059303;28;20067;-70
2024/01/22 07:38:08;;;;;;;22.73;3.90;;;9.60;99.90;;;;;;5055716;28;20048;-71
2024/01/22 07:40:33;;;;;;;24.37;3.53;;;9.60;99.90;;;;;;5054291;28;20048;-72
2024/01/22 07:42:59;;;;;;;25.27;3.83;;;9.60;99.90;;;;;;5056950;28;20106;-71
2024/01/22 07:45:31;;;;;;;23.75;3.70;;;9.60;99.90;;;;;;5061681;28;20093;-71
2024/01/22 07:47:56;;;;;;;26.23;4.60;;;9.60;99.90;;;;;;5058400;28;20056;-71
2024/01/22 07:50:22;;;;;;;22.93;4.50;;;9.60;99.90;;;;;;5055037;28;20467;-73
2024/01/22 07:52:47;;;;;;;27.57;4.27;;;9.60;99.90;;;;;;5051159;28;20123;-72
2024/01/22 07:55:17;;;;;;;24.77;4.43;;;9.60;99.90;;;;;;5041572;28;20062;-72
2024/01/22 07:57:43;;;;;;;32.75;4.15;;;9.50;99.90;;;;;;5052232;28;20458;-72
2024/01/22 08:00:11;;;;;;;30.23;5.37;;;9.50;99.90;;;;;;5051345;28;20051;-72
2024/01/22 08:02:40;;;;;;;25.70;4.97;;;9.50;99.90;;;;;;5040925;28;20503;-72
2024/01/22 08:05:07;;;;;;;19.38;3.90;;;9.50;99.90;;;;;;5057262;28;20656;-72
2024/01/22 08:07:33;;;;;;;18.55;4.40;;;9.40;99.90;;;;;;5055016;28;20037;-73
2024/01/22 08:09:59;;;;;;;;;;;9.40;99.90;;;;;;5042437;28;20079;-72
2024/01/22 08:12:24;;;;;;;23.25;4.45;;;9.40;99.90;;;;;;5054464;28;20342;-72
2024/01/22 08:14:50;;;;;;;24.88;4.63;;;9.40;99.90;;;;;;5056457;28;20051;-72
2024/01/22 08:17:16;;;;;;;21.67;4.47;;;9.50;99.90;;;;;;5055462;28;20489;-72
2024/01/22 08:19:42;;;;;;;31.35;4.55;;;9.50;99.90;;;;;;5053075;28;20048;-72
2024/01/22 08:22:07;;;;;;;22.00;3.53;;;9.50;99.90;;;;;;5054985;28;20051;-73
2024/01/22 08:24:33;;;;;;;30.53;4.37;;;9.40;99.90;;;;;;5056284;28;20068;-72
2024/01/22 08:27:00;;;;;;;28.47;4.57;;;9.40;99.90;;;;;;5059164;28;20033;-72
2024/01/22 08:29:25;;;;;;;26.75;3.95;;;9.40;99.90;;;;;;5056107;28;20570;-72
2024/01/22 08:31:52;;;;;;;28.43;4.17;;;9.30;99.90;;;;;;5057535;28;20132;-72
2024/01/22 08:34:18;;;;;;;27.25;5.82;;;9.30;99.90;;;;;;5050559;28;20562;-72
2024/01/22 08:36:44;;;;;;;35.43;5.50;;;9.30;99.90;;;;;;5040519;28;20037;-72
2024/01/22 08:39:09;;;;;;;36.33;5.43;;;9.30;99.90;;;;;;5059274;28;20056;-71
2024/01/22 08:41:37;;;;;;;37.93;6.20;;;9.30;99.90;;;;;;5058606;28;20295;-72
2024/01/22 08:44:05;;;;;;;37.20;5.95;;;9.30;99.90;;;;;;5072447;28;20294;-72
2024/01/22 08:46:34;;;;;;;36.13;5.63;;;9.30;99.90;;;;;;5055888;28;20041;-72
2024/01/22 08:48:59;;;;;;;37.45;7.18;;;9.30;99.90;;;;;;5061438;28;20044;-71
2024/01/22 08:51:25;;;;;;;39.83;5.83;;;9.20;99.90;;;;;;5056723;28;20044;-71
2024/01/22 08:53:51;;;;;;;36.47;6.83;;;9.20;99.90;;;;;;5052201;28;20043;-71
2024/01/22 08:56:17;;;;;;;37.80;5.93;;;9.20;99.90;;;;;;5055918;28;20040;-72
2024/01/22 08:58:42;;;;;;;36.08;5.47;;;9.20;99.90;;;;;;5056325;28;20572;-71
2024/01/22 09:01:08;;;;;;;39.67;5.63;;;9.20;99.90;;;;;;5052649;28;20044;-71
2024/01/22 09:03:34;;;;;;;28.80;5.97;;;9.10;99.90;;;;;;5055531;28;20182;-72
2024/01/22 09:06:00;;;;;;;28.60;6.03;;;9.20;99.90;;;;;;5040872;28;20535;-72
2024/01/22 09:08:26;;;;;;;33.03;5.87;;;9.10;99.90;;;;;;5044978;28;20044;-72
2024/01/22 09:10:52;;;;;;;33.50;6.25;;;9.10;99.90;;;;;;5058733;28;20041;-73
2024/01/22 09:13:19;;;;;;;44.80;6.55;;;9.10;99.90;;;;;;5062538;28;20036;-72
2024/01/22 09:15:45;;;;;;;;;;;9.10;99.90;;;;;;5051041;28;20493;-71
2024/01/22 09:18:11;;;;;;;29.00;5.38;;;9.20;99.90;;;;;;5052379;28;19916;-72
2024/01/22 09:20:36;;;;;;;44.53;6.53;;;9.20;99.90;;;;;;5055629;28;20040;-72
2024/01/22 09:23:02;;;;;;;31.90;7.50;;;9.10;99.90;;;;;;5059469;28;20047;-72
2024/01/22 09:25:28;;;;;;;31.47;5.70;;;9.20;99.90;;;;;;5041276;28;20397;-71
2024/01/22 09:27:54;;;;;;;40.22;6.32;;;9.10;99.90;;;;;;5060635;28;20738;-72
2024/01/22 09:30:19;;;;;;;26.33;4.73;;;9.10;99.90;;;;;;5058390;28;20040;-73
2024/01/22 09:32:45;;;;;;;32.03;5.47;;;9.10;99.90;;;;;;5047799;28;20052;-71
2024/01/22 09:35:11;;;;;;;32.90;5.68;;;9.10;99.90;;;;;;5065013;28;20170;-73
2024/01/22 09:37:36;;;;;;;36.07;6.60;;;9.10;99.90;;;;;;5059884;28;20052;-71
2024/01/22 09:40:06;;;;;;;25.90;5.90;;;9.10;99.90;;;;;;5052503;28;20041;-72
2024/01/22 09:42:33;;;;;;;34.42;6.13;;;9.10;99.90;;;;;;5036090;28;20049;-72
2024/01/22 09:44:59;;;;;;;33.42;6.03;;;9.10;99.90;;;;;;5044329;28;20056;-72
2024/01/22 09:47:24;;;;;;;43.10;4.97;;;9.10;99.90;;;;;;5041278;28;20052;-72
2024/01/22 09:49:50;;;;;;;37.37;5.37;;;9.10;99.90;;;;;;5045011;28;20055;-72
2024/01/22 09:52:17;;;;;;;30.00;4.03;;;9.10;99.90;;;;;;5065677;28;20126;-71
2024/01/22 09:54:43;;;;;;;;;;;9.10;99.90;;;;;;5065274;28;20110;-71
2024/01/22 09:57:16;;;;;;;23.60;4.35;;;9.10;99.90;;;;;;5063401;28;19948;-71
2024/01/22 09:59:43;;;;;;;26.15;4.82;;;9.10;99.90;;;;;;5059914;28;20041;-70
2024/01/22 10:02:13;;;;;;;18.60;4.63;;;9.10;99.90;;;;;;5060820;28;20523;-73
2024/01/22 10:04:39;;;;;;;32.92;5.65;;;9.20;99.90;;;;;;5056989;28;20072;-80
2024/01/22 10:07:07;;;;;;;30.40;4.10;;;9.10;99.90;;;;;;5063565;28;20044;-76
2024/01/22 10:09:33;;;;;;;23.38;4.07;;;9.20;99.90;;;;;;5058422;28;20465;-71
2024/01/22 10:11:58;;;;;;;37.85;4.00;;;9.20;99.90;;;;;;5064526;28;20131;-71
2024/01/22 10:14:31;;;;;;;26.47;3.57;;;9.20;99.90;;;;;;5059236;28;20055;-70
2024/01/22 10:17:14;;;;;;;25.60;4.10;;;9.20;99.90;;;;;;5060351;28;20075;-70
2024/01/22 10:19:44;;;;;;;19.15;3.47;;;9.20;99.90;;;;;;5060045;28;20159;-70
2024/01/22 10:22:11;;;;;;;21.00;3.55;;;9.30;99.90;;;;;;5060548;28;20123;-70
2024/01/22 10:24:39;;;;;;;18.58;3.35;;;9.30;99.90;;;;;;5060840;28;20131;-71
2024/01/22 10:27:17;;;;;;;19.90;4.65;;;9.40;99.90;;;;;;5066162;28;20113;-69
2024/01/22 10:29:44;;;;;;;18.45;3.08;;;9.40;99.90;;;;;;5054079;28;20041;-71
2024/01/22 10:32:10;;;;;;;21.15;3.33;;;9.40;99.90;;;;;;5057456;28;20186;-70
2024/01/22 10:34:50;;;;;;;17.00;3.33;;;9.40;99.90;;;;;;5064828;28;20126;-71
2024/01/22 10:37:17;;;;;;;20.23;3.17;;;9.50;99.90;;;;;;5064879;28;20045;-70
2024/01/22 10:39:45;;;;;;;12.95;3.13;;;9.50;99.90;;;;;;5037033;28;20045;-72
2024/01/22 10:42:16;;;;;;;22.83;3.03;;;9.50;99.90;;;;;;5062117;28;20044;-69
2024/01/22 10:44:46;;;;;;;17.58;2.83;;;9.50;99.90;;;;;;5059636;28;20039;-70
2024/01/22 10:47:13;;;;;;;20.70;4.85;;;9.60;99.90;;;;;;5044108;28;20048;-70
2024/01/22 10:49:44;;;;;;;14.40;3.20;;;9.60;99.90;;;;;;5064289;28;20044;-71
2024/01/22 10:52:10;;;;;;;19.55;4.78;;;9.60;99.90;;;;;;5043748;28;20044;-71
2024/01/22 10:54:36;;;;;;;21.20;3.25;;;9.60;99.90;;;;;;5043866;28;20032;-70
2024/01/22 10:57:08;;;;;;;;;;;9.70;99.90;;;;;;5066247;28;20123;-70
2024/01/22 10:59:39;;;;;;;13.95;2.88;;;9.70;99.90;;;;;;5058115;28;19934;-71
2024/01/22 11:02:15;;;;;;;19.05;3.60;;;9.80;99.90;;;;;;5045834;28;20056;-70
2024/01/22 11:04:44;;;;;;;23.05;3.65;;;9.80;99.90;;;;;;5061800;28;20556;-70
2024/01/22 11:07:11;;;;;;;20.17;3.10;;;9.80;99.90;;;;;;5061146;28;20052;-71
2024/01/22 11:09:38;;;;;;;16.42;4.70;;;9.90;99.90;;;;;;5047458;28;20174;-70
2024/01/22 11:12:11;;;;;;;19.17;3.10;;;9.90;99.90;;;;;;5062793;28;20040;-70
2024/01/22 11:14:38;;;;;;;17.25;3.33;;;9.90;99.90;;;;;;5060537;28;20045;-70
2024/01/22 11:17:09;;;;;;;20.65;3.38;;;9.90;99.90;;;;;;5060097;28;20412;-71
2024/01/22 11:19:35;;;;;;;13.15;3.33;;;10.00;99.90;;;;;;5057163;28;20465;-70
2024/01/22 11:22:21;;;;;;;25.73;3.20;;;10.00;99.90;;;;;;5059274;28;20530;-72
2024/01/22 11:25:12;;;;;;;15.00;3.40;;;10.00;99.90;;;;;;5056963;28;20041;-71
2024/01/22 11:27:42;;;;;;;20.85;4.40;;;10.00;99.90;;;;;;5055891;28;20511;-70
2024/01/22 11:30:20;;;;;;;16.10;2.22;;;10.00;99.90;;;;;;5055595;28;20056;-71
2024/01/22 11:32:46;;;;;;;16.05;3.63;;;10.00;99.90;;;;;;5040176;28;20040;-70
2024/01/22 11:35:11;;;;;;;24.03;3.40;;;10.00;99.90;;;;;;5057374;28;20068;-74
2024/01/22 11:37:38;;;;;;;20.47;3.77;;;10.00;99.90;;;;;;5054490;28;20297;-72
2024/01/22 11:40:11;;;;;;;16.58;2.97;;;10.00;99.90;;;;;;5061628;28;20471;-70
2024/01/22 11:42:36;;;;;;;14.95;2.65;;;10.00;99.90;;;;;;5056288;28;20040;-70
2024/01/22 11:45:11;;;;;;;18.57;4.17;;;10.00;99.90;;;;;;5040399;28;20044;-70
2024/01/22 11:47:38;;;;;;;16.98;2.30;;;9.90;99.90;;;;;;5041562;28;20285;-70
2024/01/22 11:50:06;;;;;;;;;;;9.90;99.90;;;;;;5060518;28;20466;-70
2024/01/22 11:52:33;;;;;;;14.35;2.63;;;10.00;99.90;;;;;;5058102;28;20007;-70
2024/01/22 11:55:07;;;;;;;18.45;3.42;;;10.00;99.90;;;;;;5056365;28;20052;-70
2024/01/22 11:57:37;;;;;;;21.00;2.83;;;10.10;99.90;;;;;;5059586;28;20044;-70
2024/01/22 12:00:11;;;;;;;22.85;3.75;;;10.10;99.90;;;;;;5055014;28;20044;-70
2024/01/22 12:02:44;;;;;;;18.63;2.92;;;10.10;99.90;;;;;;5054842;28;20063;-71
2024/01/22 12:05:17;;;;;;;16.98;2.67;;;10.10;99.90;;;;;;5061210;28;20513;-70
2024/01/22 12:07:47;;;;;;;17.08;2.35;;;10.20;99.90;;;;;;5060586;28;20037;-71
2024/01/22 12:10:27;;;;;;;18.10;3.10;;;10.20;99.90;;;;;;5057888;28;20469;-70
2024/01/22 12:13:05;;;;;;;18.48;3.17;;;10.30;99.90;;;;;;5058662;28;20185;-71
2024/01/22 12:15:32;;;;;;;13.40;2.42;;;10.30;99.90;;;;;;5063605;28;20051;-71
2024/01/22 12:17:59;;;;;;;14.45;2.45;;;10.30;99.90;;;;;;5057829;28;20044;-71
2024/01/22 12:20:26;;;;;;;17.27;2.65;;;10.30;99.90;;;;;;5056239;28;20436;-71
2024/01/22 12:23:04;;;;;;;14.15;2.20;;;10.30;99.90;;;;;;5038752;28;20423;-72
2024/01/22 12:25:34;;;;;;;21.33;3.20;;;10.30;99.90;;;;;;5056976;28;20063;-71
2024/01/22 12:28:08;;;;;;;15.25;3.55;;;10.30;99.90;;;;;;5057895;28;20481;-72
2024/01/22 12:30:34;;;;;;;17.20;2.78;;;10.40;99.90;;;;;;5059466;28;20047;-71
2024/01/22 12:32:59;;;;;;;11.30;2.50;;;10.30;99.90;;;;;;5057468;28;20045;-71
2024/01/22 12:35:25;;;;;;;15.43;2.67;;;10.30;99.90;;;;;;5062328;28;20098;-71
2024/01/22 12:37:51;;;;;;;22.13;3.50;;;10.30;99.90;;;;;;5060987;28;20067;-71
2024/01/22 12:40:18;;;;;;;14.93;2.80;;;10.30;99.90;;;;;;5058137;28;20063;-70
2024/01/22 12:42:46;;;;;;;16.23;2.55;;;10.30;99.90;;;;;;5046368;28;20052;-72
2024/01/22 12:45:13;;;;;;;15.45;3.08;;;10.30;99.90;;;;;;5053411;28;20051;-71
2024/01/22 12:47:40;;;;;;;13.82;2.75;;;10.30;99.90;;;;;;5057580;28;20044;-70
2024/01/22 12:50:06;;;;;;;;;;;10.30;99.90;;;;;;5055358;28;20045;-71
2024/01/22 12:52:32;;;;;;;13.25;2.75;;;10.20;99.90;;;;;;5062483;28;20050;-71
2024/01/22 12:55:01;;;;;;;26.03;3.87;;;10.20;99.90;;;;;;5062368;28;20135;-72
2024/01/22 12:57:26;;;;;;;24.58;3.78;;;10.30;99.90;;;;;;5058474;28;20115;-71